createdAt,value
2019-05-17T00:00:27.280Z,92.53
2019-05-17T00:03:32.834Z,92.60
2019-05-17T00:06:37.014Z,92.38
2019-05-17T00:09:40.700Z,92.55
2019-05-17T00:12:46.913Z,92.28
2019-05-17T00:15:49.971Z,92.26
2019-05-17T00:18:53.507Z,92.51
2019-05-17T00:21:57.251Z,92.51
2019-05-17T00:25:00.912Z,92.27
2019-05-17T00:28:07.043Z,91.84
2019-05-17T00:31:10.363Z,92.11
2019-05-17T00:34:16.593Z,91.91
2019-05-17T00:37:21.296Z,91.97
2019-05-17T00:40:26.983Z,91.70
2019-05-17T00:43:30.983Z,91.89
2019-05-17T00:46:37.096Z,92.03
2019-05-17T00:49:39.967Z,92.36
2019-05-17T00:52:43.788Z,92.42
2019-05-17T00:55:47.475Z,92.41
2019-05-17T00:58:51.181Z,92.33
2019-05-17T01:01:56.232Z,92.08
2019-05-17T01:05:00.028Z,91.87
2019-05-17T01:08:03.617Z,91.79
2019-05-17T01:11:07.390Z,91.84
2019-05-17T01:14:11.024Z,92.05
2019-05-17T01:17:16.522Z,92.02
2019-05-17T01:20:20.284Z,92.48
2019-05-17T01:23:23.961Z,92.72
2019-05-17T01:26:27.692Z,92.86
2019-05-17T01:29:31.398Z,92.67
2019-05-17T01:32:37.487Z,93.30
2019-05-17T01:35:46.636Z,93.14
2019-05-17T01:38:50.566Z,92.85
2019-05-17T01:41:54.197Z,92.50
2019-05-17T01:44:57.867Z,92.43
2019-05-17T01:48:01.599Z,92.48
2019-05-17T01:51:07.301Z,92.96
2019-05-17T01:54:10.690Z,92.67
2019-05-17T01:57:16.671Z,92.49
2019-05-17T02:00:20.280Z,92.31
2019-05-17T02:03:24.085Z,92.16
2019-05-17T02:06:27.804Z,92.44
2019-05-17T02:09:37.335Z,92.22
2019-05-17T02:12:37.293Z,91.91
2019-05-17T02:15:40.971Z,91.96
2019-05-17T02:18:46.599Z,91.77
2019-05-17T02:21:50.181Z,91.67
2019-05-17T02:24:53.782Z,91.61
2019-05-17T02:27:57.489Z,91.81
2019-05-17T02:31:03.467Z,91.70
2019-05-17T02:34:07.046Z,91.69
2019-05-17T02:37:13.562Z,91.55
2019-05-17T02:40:16.710Z,91.27
2019-05-17T02:43:23.365Z,91.25
2019-05-17T02:46:25.861Z,91.39
2019-05-17T02:49:29.413Z,91.58
2019-05-17T02:52:33.140Z,91.69
2019-05-17T02:55:37.022Z,91.58
2019-05-17T02:58:43.645Z,91.61
2019-05-17T03:01:46.276Z,91.69
2019-05-17T03:04:52.531Z,91.40
2019-05-17T03:07:55.356Z,91.25
2019-05-17T03:10:58.944Z,91.25
2019-05-17T03:14:03.968Z,91.19
2019-05-17T03:17:08.205Z,91.66
2019-05-17T03:20:13.251Z,91.56
2019-05-17T03:23:17.055Z,91.84
2019-05-17T03:26:23.104Z,91.71
2019-05-17T03:29:26.341Z,91.66
2019-05-17T03:32:36.132Z,91.83
2019-05-17T03:35:38.372Z,91.44
2019-05-17T03:38:43.142Z,91.37
2019-05-17T03:41:47.208Z,91.49
2019-05-17T03:44:53.089Z,91.55
2019-05-17T03:47:56.391Z,91.60
2019-05-17T03:51:02.567Z,91.27
2019-05-17T03:54:05.521Z,91.11
2019-05-17T03:57:09.339Z,90.63
2019-05-17T04:00:13.894Z,90.91
2019-05-17T04:03:17.706Z,90.88
2019-05-17T04:06:23.788Z,90.62
2019-05-17T04:09:26.914Z,90.42
2019-05-17T04:12:32.770Z,90.28
2019-05-17T04:15:35.993Z,89.94
2019-05-17T04:18:43.374Z,89.76
2019-05-17T04:21:45.168Z,90.34
2019-05-17T04:24:48.845Z,90.66
2019-05-17T04:27:53.642Z,90.38
2019-05-17T04:30:57.396Z,90.44
2019-05-17T04:34:03.094Z,90.65
2019-05-17T04:37:06.435Z,90.49
2019-05-17T04:40:13.633Z,90.33
2019-05-17T04:43:15.594Z,90.54
2019-05-17T04:46:19.295Z,89.94
2019-05-17T04:49:24.334Z,89.83
2019-05-17T04:52:28.260Z,89.55
2019-05-17T04:55:34.194Z,89.66
2019-05-17T04:58:37.306Z,89.60
2019-05-17T05:01:43.518Z,89.49
2019-05-17T05:04:46.988Z,89.45
2019-05-17T05:07:53.455Z,89.12
2019-05-17T05:10:56.268Z,88.96
2019-05-17T05:14:02.658Z,89.19
2019-05-17T05:17:05.301Z,89.34
2019-05-17T05:20:09.163Z,89.01
2019-05-17T05:23:13.402Z,88.51
2019-05-17T05:26:17.227Z,88.67
2019-05-17T05:29:21.651Z,88.87
2019-05-17T05:32:25.529Z,88.26
2019-05-17T05:35:29.130Z,88.10
2019-05-17T05:38:32.813Z,88.04
2019-05-17T05:41:36.546Z,88.12
2019-05-17T05:44:41.574Z,87.74
2019-05-17T05:47:45.230Z,88.58
2019-05-17T05:50:49.001Z,88.55
2019-05-17T05:53:52.655Z,88.54
2019-05-17T05:56:56.392Z,87.81
2019-05-17T06:00:02.278Z,88.02
2019-05-17T06:03:05.528Z,87.27
2019-05-17T06:06:09.065Z,87.07
2019-05-17T06:09:12.839Z,87.23
2019-05-17T06:12:23.688Z,87.47
2019-05-17T06:15:22.091Z,87.01
2019-05-17T06:18:25.735Z,87.07
2019-05-17T06:21:31.788Z,86.43
2019-05-17T06:24:34.915Z,85.93
2019-05-17T06:27:38.540Z,87.00
2019-05-17T06:30:43.027Z,85.98
2019-05-17T06:33:46.918Z,85.68
2019-05-17T06:36:52.712Z,85.63
2019-05-17T06:39:55.884Z,83.78
2019-05-17T06:42:59.432Z,85.52
2019-05-17T06:46:03.197Z,86.20
2019-05-17T06:49:06.950Z,85.79
2019-05-17T06:52:11.646Z,83.96
2019-05-17T06:55:15.456Z,84.54
2019-05-17T06:58:18.995Z,84.72
2019-05-17T07:01:22.642Z,83.51
2019-05-17T07:04:26.364Z,84.06
2019-05-17T07:07:30.655Z,83.33
2019-05-17T07:10:34.518Z,83.44
2019-05-17T07:13:39.537Z,83.64
2019-05-17T07:16:43.320Z,82.50
2019-05-17T07:19:46.939Z,82.73
2019-05-17T07:22:50.813Z,82.18
2019-05-17T07:25:54.396Z,81.06
2019-05-17T07:28:59.268Z,80.69
2019-05-17T07:32:03.000Z,79.96
2019-05-17T07:35:06.903Z,79.79
2019-05-17T07:38:10.987Z,79.07
2019-05-17T07:41:14.663Z,78.50
2019-05-17T07:44:20.399Z,77.38
2019-05-17T07:47:23.494Z,76.54
2019-05-17T07:50:29.200Z,78.13
2019-05-17T07:53:32.469Z,76.94
2019-05-17T07:56:36.054Z,77.82
2019-05-17T07:59:39.857Z,77.02
2019-05-17T08:02:43.602Z,75.38
2019-05-17T08:05:47.127Z,76.47
2019-05-17T08:08:50.709Z,75.54
2019-05-17T08:11:54.294Z,77.26
2019-05-17T08:14:59.861Z,75.90
2019-05-17T08:18:03.075Z,77.69
2019-05-17T08:21:06.639Z,75.11
2019-05-17T08:24:10.423Z,73.59
2019-05-17T08:27:14.230Z,74.35
2019-05-17T08:30:20.662Z,73.07
2019-05-17T08:33:24.101Z,71.51
2019-05-17T08:36:29.846Z,70.08
2019-05-17T08:39:32.938Z,71.24
2019-05-17T08:42:36.480Z,69.37
2019-05-17T08:45:40.889Z,66.63
2019-05-17T08:48:44.673Z,65.75
2019-05-17T08:51:50.026Z,62.80
2019-05-17T08:54:53.562Z,61.10
2019-05-17T08:57:57.205Z,56.10
2019-05-17T09:01:00.810Z,53.10
2019-05-17T09:04:04.514Z,50.60
2019-05-17T09:07:09.475Z,53.08
2019-05-17T09:10:13.368Z,57.31
2019-05-17T09:13:19.375Z,57.45
2019-05-17T09:16:22.382Z,57.95
2019-05-17T09:19:25.993Z,57.30
2019-05-17T09:22:30.534Z,57.59
2019-05-17T09:25:34.355Z,60.71
2019-05-17T09:28:39.386Z,59.60
2019-05-17T09:31:43.167Z,57.89
2019-05-17T09:34:46.783Z,57.21
2019-05-17T09:37:50.429Z,55.49
2019-05-17T09:40:54.067Z,55.42
2019-05-17T09:44:09.619Z,51.17
2019-05-17T09:47:03.079Z,51.57
2019-05-17T09:50:09.684Z,49.28
2019-05-17T09:53:12.951Z,47.13
2019-05-17T09:56:16.548Z,46.06
2019-05-17T09:59:20.480Z,49.87
2019-05-17T10:02:24.175Z,51.45
2019-05-17T10:05:27.823Z,51.79
2019-05-17T10:08:31.510Z,52.03
2019-05-17T10:11:35.372Z,52.17
2019-05-17T10:14:43.716Z,52.43
2019-05-17T10:17:49.379Z,49.90
2019-05-17T10:20:56.586Z,49.41
2019-05-17T10:24:00.468Z,49.57
2019-05-17T10:27:04.330Z,49.86
2019-05-17T10:30:10.512Z,48.24
2019-05-17T10:33:14.678Z,46.83
2019-05-17T10:36:20.185Z,47.02
2019-05-17T10:39:24.079Z,45.05
2019-05-17T10:42:30.520Z,45.69
2019-05-17T10:45:33.619Z,43.44
2019-05-17T10:48:37.299Z,42.95
2019-05-17T10:51:41.012Z,45.57
2019-05-17T10:54:44.796Z,46.01
2019-05-17T10:57:50.003Z,45.44
2019-05-17T11:00:54.185Z,40.60
2019-05-17T11:03:59.583Z,36.85
2019-05-17T11:07:04.354Z,35.81
2019-05-17T11:10:11.796Z,36.06
2019-05-17T11:13:14.223Z,36.43
2019-05-17T11:16:17.984Z,39.53
2019-05-17T11:19:21.736Z,37.51
2019-05-17T11:22:25.370Z,38.45
2019-05-17T11:25:29.581Z,37.01
2019-05-17T11:28:33.263Z,34.03
2019-05-17T11:31:37.003Z,35.63
2019-05-17T11:34:40.648Z,37.52
2019-05-17T11:37:44.545Z,38.83
2019-05-17T11:40:49.993Z,39.66
2019-05-17T11:43:53.974Z,41.10
2019-05-17T11:46:57.934Z,46.23
2019-05-17T11:50:01.676Z,44.91
2019-05-17T11:53:05.368Z,46.78
2019-05-17T11:56:09.212Z,48.51
2019-05-17T11:59:12.872Z,46.25
2019-05-17T12:02:16.665Z,46.61
2019-05-17T12:05:20.334Z,44.80
2019-05-17T12:08:24.022Z,46.00
2019-05-17T12:11:27.899Z,45.22
2019-05-17T12:14:31.632Z,41.74
2019-05-17T12:17:35.372Z,36.76
2019-05-17T12:20:39.085Z,41.57
2019-05-17T12:23:42.808Z,45.88
2019-05-17T12:26:47.566Z,48.87
2019-05-17T12:29:51.297Z,50.36
2019-05-17T12:32:55.158Z,52.35
2019-05-17T12:35:59.005Z,53.97
2019-05-17T12:39:03.205Z,53.37
2019-05-17T12:42:07.207Z,52.84
2019-05-17T12:45:11.210Z,51.98
2019-05-17T12:48:14.919Z,48.37
2019-05-17T12:51:18.786Z,45.72
2019-05-17T12:54:22.450Z,44.43
2019-05-17T12:57:26.327Z,47.06
2019-05-17T13:00:29.972Z,48.92
2019-05-17T13:03:33.727Z,50.97
2019-05-17T13:06:37.346Z,51.43
2019-05-17T13:09:40.992Z,50.97
2019-05-17T13:12:44.642Z,50.33
2019-05-17T13:15:48.301Z,50.81
2019-05-17T13:18:51.948Z,49.82
2019-05-17T13:21:55.566Z,50.89
2019-05-17T13:24:59.190Z,48.77
2019-05-17T13:28:02.875Z,48.06
2019-05-17T13:31:06.479Z,45.99
2019-05-17T13:34:10.125Z,45.35
2019-05-17T13:37:13.833Z,44.93
2019-05-17T13:40:18.112Z,41.98
2019-05-17T13:43:21.798Z,45.63
2019-05-17T13:46:33.007Z,47.70
2019-05-17T13:49:30.860Z,50.91
2019-05-17T13:52:34.470Z,51.84
2019-05-17T13:55:38.120Z,53.42
2019-05-17T13:58:41.726Z,53.45
2019-05-17T14:01:46.284Z,52.85
2019-05-17T14:04:49.954Z,51.87
2019-05-17T14:07:53.541Z,47.22
2019-05-17T14:10:57.247Z,49.20
2019-05-17T14:14:00.931Z,51.85
2019-05-17T14:17:04.641Z,53.79
2019-05-17T14:20:08.634Z,55.36
2019-05-17T14:23:12.359Z,55.46
2019-05-17T14:26:16.005Z,53.32
2019-05-17T14:29:19.669Z,53.35
2019-05-17T14:32:23.339Z,53.02
2019-05-17T14:35:28.691Z,53.58
2019-05-17T14:38:32.365Z,52.51
2019-05-17T14:41:35.976Z,51.92
2019-05-17T14:44:39.643Z,53.54
2019-05-17T14:47:43.326Z,52.13
2019-05-17T14:50:46.956Z,51.94
2019-05-17T14:53:50.919Z,51.05
2019-05-17T14:56:54.709Z,50.56
2019-05-17T14:59:58.356Z,50.88
2019-05-17T15:03:02.123Z,50.93
2019-05-17T15:06:05.791Z,51.36
2019-05-17T15:09:11.660Z,50.27
2019-05-17T15:12:27.175Z,50.94
2019-05-17T15:15:25.615Z,51.29
2019-05-17T15:18:25.778Z,51.92
2019-05-17T15:21:29.454Z,50.98
2019-05-17T15:24:33.078Z,51.23
2019-05-17T15:27:36.739Z,50.64
2019-05-17T15:30:40.427Z,50.12
2019-05-17T15:33:44.077Z,49.38
2019-05-17T15:36:47.705Z,48.03
2019-05-17T15:39:51.385Z,48.68
2019-05-17T15:42:54.996Z,49.85
2019-05-17T15:45:58.733Z,49.54
2019-05-17T15:49:02.362Z,48.31
2019-05-17T15:52:06.146Z,48.72
2019-05-17T15:55:09.841Z,48.11
2019-05-17T15:58:13.500Z,48.58
2019-05-17T16:01:17.174Z,49.45
2019-05-17T16:04:20.817Z,48.53
2019-05-17T16:07:24.502Z,48.11
2019-05-17T16:10:28.167Z,48.55
2019-05-17T16:13:33.853Z,48.17
2019-05-17T16:16:37.327Z,47.76
2019-05-17T16:19:40.929Z,46.88
2019-05-17T16:22:44.562Z,46.13
2019-05-17T16:25:48.201Z,46.25
2019-05-17T16:28:51.818Z,47.01
2019-05-17T16:31:55.525Z,47.54
2019-05-17T16:34:59.192Z,46.87
2019-05-17T16:38:02.830Z,47.11
2019-05-17T16:41:06.550Z,47.00
2019-05-17T16:44:10.209Z,47.20
2019-05-17T16:47:13.828Z,47.29
2019-05-17T16:50:17.845Z,47.77
2019-05-17T16:53:21.576Z,48.04
2019-05-17T16:56:25.354Z,47.81
2019-05-17T16:59:29.044Z,47.83
2019-05-17T17:02:32.710Z,48.07
2019-05-17T17:05:36.655Z,47.94
2019-05-17T17:08:41.804Z,48.89
2019-05-17T17:11:45.859Z,49.64
2019-05-17T17:14:49.445Z,49.87
2019-05-17T17:17:53.161Z,50.63
2019-05-17T17:20:56.801Z,50.43
2019-05-17T17:24:00.511Z,50.12
2019-05-17T17:27:04.395Z,50.61
2019-05-17T17:30:10.211Z,50.62
2019-05-17T17:33:13.999Z,51.28
2019-05-17T17:36:19.524Z,51.53
2019-05-17T17:39:23.051Z,50.96
2019-05-17T17:42:26.704Z,50.88
2019-05-17T17:45:30.521Z,51.23
2019-05-17T17:48:34.184Z,52.05
2019-05-17T17:51:37.821Z,52.12
2019-05-17T17:54:41.452Z,51.79
2019-05-17T17:57:45.237Z,52.32
2019-05-17T18:00:48.971Z,51.32
2019-05-17T18:03:52.632Z,51.37
2019-05-17T18:06:56.279Z,51.82
2019-05-17T18:09:59.961Z,52.03
2019-05-17T18:13:03.602Z,51.83
2019-05-17T18:16:07.250Z,51.85
2019-05-17T18:19:10.930Z,52.46
2019-05-17T18:22:14.635Z,52.57
2019-05-17T18:25:18.671Z,52.81
2019-05-17T18:28:22.406Z,53.04
2019-05-17T18:31:26.035Z,53.52
2019-05-17T18:34:29.746Z,54.18
2019-05-17T18:37:39.391Z,54.26
2019-05-17T18:40:49.859Z,54.29
2019-05-17T18:44:27.037Z,55.07
2019-05-17T18:47:24.081Z,55.14
2019-05-17T18:50:28.273Z,55.86
2019-05-17T18:53:32.011Z,56.31
2019-05-17T18:56:35.664Z,56.58
2019-05-17T18:59:39.308Z,56.76
2019-05-17T19:02:42.932Z,56.50
2019-05-17T19:05:46.485Z,56.83
2019-05-17T19:08:50.041Z,56.82
2019-05-17T19:11:53.603Z,57.04
2019-05-17T19:15:00.499Z,57.88
2019-05-17T19:18:02.600Z,58.73
2019-05-17T19:21:13.475Z,59.99
2019-05-17T19:24:17.042Z,59.85
2019-05-17T19:27:20.637Z,60.00
2019-05-17T19:30:24.335Z,60.13
2019-05-17T19:33:28.074Z,60.18
2019-05-17T19:36:31.694Z,60.56
2019-05-17T19:39:35.258Z,61.84
2019-05-17T19:42:38.811Z,63.40
2019-05-17T19:45:43.203Z,61.94
2019-05-17T19:48:47.387Z,62.58
2019-05-17T19:51:51.041Z,63.40
2019-05-17T19:54:54.616Z,63.79
2019-05-17T19:57:58.595Z,64.37
2019-05-17T20:01:03.995Z,64.72
2019-05-17T20:04:08.078Z,65.00
2019-05-17T20:07:12.530Z,65.23
2019-05-17T20:10:17.077Z,65.71
2019-05-17T20:13:20.627Z,65.78
2019-05-17T20:16:24.203Z,66.45
2019-05-17T20:19:27.838Z,67.07
2019-05-17T20:22:33.014Z,67.19
2019-05-17T20:25:36.611Z,67.73
2019-05-17T20:28:43.160Z,68.09
2019-05-17T20:31:46.817Z,67.84
2019-05-17T20:34:50.432Z,68.90
2019-05-17T20:37:53.954Z,68.49
2019-05-17T20:40:57.534Z,68.86
2019-05-17T20:44:04.662Z,69.30
2019-05-17T20:47:08.249Z,69.49
2019-05-17T20:50:13.714Z,69.85
2019-05-17T20:53:19.507Z,69.81
2019-05-17T20:56:32.317Z,70.36
2019-05-17T20:59:28.585Z,70.57
2019-05-17T21:02:36.415Z,70.54
2019-05-17T21:05:37.460Z,70.67
2019-05-17T21:08:45.871Z,70.78
2019-05-17T21:11:46.330Z,70.79
2019-05-17T21:14:49.981Z,71.07
2019-05-17T21:17:53.516Z,71.27
2019-05-17T21:24:14.067Z,72.38
2019-05-17T21:27:19.210Z,72.85
2019-05-17T21:30:22.901Z,73.22
2019-05-17T21:33:26.579Z,73.52
2019-05-17T21:36:30.224Z,73.98
2019-05-17T21:39:33.827Z,74.40
2019-05-17T21:42:38.874Z,74.43
2019-05-17T21:45:42.481Z,73.88
2019-05-17T21:48:47.497Z,74.34
2019-05-17T21:51:51.048Z,74.51
2019-05-17T21:54:54.647Z,74.40
2019-05-17T21:57:59.873Z,74.67
2019-05-17T22:01:06.736Z,75.02
2019-05-17T22:04:10.312Z,74.68
2019-05-17T22:07:13.938Z,74.80
2019-05-17T22:10:23.656Z,74.81
2019-05-17T22:13:28.389Z,74.88
2019-05-17T22:16:34.075Z,74.99
2019-05-17T22:19:38.768Z,75.32
2019-05-17T22:22:43.941Z,75.69
2019-05-17T22:25:47.533Z,76.14
2019-05-17T22:28:51.204Z,76.07
2019-05-17T22:31:54.832Z,76.39
2019-05-17T22:34:58.595Z,76.61
2019-05-17T22:38:02.281Z,76.84
2019-05-17T22:41:06.246Z,76.92
2019-05-17T22:44:15.291Z,76.97
2019-05-17T22:47:18.905Z,77.17
2019-05-17T22:50:22.538Z,76.82
2019-05-17T22:53:28.562Z,77.12
2019-05-17T22:56:32.136Z,76.71
2019-05-17T22:59:37.621Z,76.50
2019-05-17T23:02:43.312Z,76.57
2019-05-17T23:05:46.570Z,76.51
2019-05-17T23:08:52.538Z,76.56
2019-05-17T23:11:55.425Z,76.65
2019-05-17T23:14:58.991Z,76.71
2019-05-17T23:18:02.565Z,76.50
2019-05-17T23:21:06.275Z,76.35
2019-05-17T23:24:09.869Z,76.80
2019-05-17T23:27:13.537Z,77.14
2019-05-17T23:30:17.192Z,77.11
2019-05-17T23:33:20.742Z,77.17
2019-05-17T23:36:24.339Z,77.11
2019-05-17T23:39:27.890Z,77.27
2019-05-17T23:42:31.516Z,76.76
2019-05-17T23:45:35.080Z,76.64
2019-05-17T23:48:38.621Z,76.63
2019-05-17T23:51:42.233Z,77.01
2019-05-17T23:54:45.922Z,76.69
2019-05-17T23:57:49.456Z,77.12
